N628DF KW91-KCGE
Flight info
| Callsign | N628DF |
|---|---|
| Flight time | 1h 14m |
| Altitude | 3000 |
| Route | LYH CRUMB FAK VUDOO SHLBK |
| Aircraft | PA24/L-SDGRY/S |
Departure
| Time | 2026-04-22 22:46 |
|---|---|
| Airport | Smith Mountain Lake Airport (KW91) |
Arrival
| Time | 2026-04-23 00:01 |
|---|---|
| Airport | Cambridge Dorchester Airport (KCGE) |
| Time | Latitude | Longitude | Altitude | Speed | Heading |
|---|---|---|---|---|---|
| 2026-04-22 22:23 | 37.11020 | -79.59018 | 890 ft | 0 kts | 166° |
| 2026-04-22 22:42 | 37.11016 | -79.59018 | 890 ft | 0 kts | 193° |
| 2026-04-22 22:43 | 37.11012 | -79.59023 | 890 ft | 2 kts | 260° |
| 2026-04-22 22:43 | 37.11049 | -79.59004 | 891 ft | 13 kts | 32° |
| 2026-04-22 22:44 | 37.11079 | -79.58928 | 893 ft | 1 kts | 109° |
| 2026-04-22 22:44 | 37.11063 | -79.58917 | 893 ft | 0 kts | 174° |
| 2026-04-22 22:44 | 37.11056 | -79.58916 | 893 ft | 7 kts | 180° |
| 2026-04-22 22:44 | 37.10900 | -79.59092 | 887 ft | 60 kts | 226° |
| 2026-04-22 22:45 | 37.10682 | -79.59345 | 1019 ft | 69 kts | 224° |
| 2026-04-22 22:45 | 37.10324 | -79.59731 | 1132 ft | 69 kts | 223° |
| 2026-04-22 22:45 | 37.10044 | -79.60103 | 1211 ft | 70 kts | 225° |
| 2026-04-22 22:45 | 37.09799 | -79.60301 | 1394 ft | 70 kts | 205° |
| 2026-04-22 22:46 | 37.09401 | -79.60007 | 1465 ft | 84 kts | 134° |
| 2026-04-22 22:46 | 37.09357 | -79.59256 | 1508 ft | 95 kts | 62° |
| 2026-04-22 22:46 | 37.09759 | -79.58650 | 1699 ft | 86 kts | 41° |
| 2026-04-22 22:46 | 37.10062 | -79.58332 | 1795 ft | 89 kts | 33° |
| 2026-04-22 22:47 | 37.10564 | -79.57840 | 1932 ft | 92 kts | 37° |
| 2026-04-22 22:47 | 37.11077 | -79.57366 | 2116 ft | 94 kts | 31° |
| 2026-04-22 22:47 | 37.11573 | -79.56839 | 2298 ft | 94 kts | 43° |
| 2026-04-22 22:47 | 37.11925 | -79.56162 | 2460 ft | 90 kts | 59° |
| 2026-04-22 22:48 | 37.12246 | -79.55465 | 2656 ft | 95 kts | 59° |
| 2026-04-22 22:48 | 37.12571 | -79.54750 | 2832 ft | 94 kts | 59° |
| 2026-04-22 22:48 | 37.12895 | -79.53986 | 2992 ft | 102 kts | 63° |
| 2026-04-22 22:48 | 37.13232 | -79.53173 | 3178 ft | 111 kts | 63° |
| 2026-04-22 22:49 | 37.13594 | -79.52298 | 3430 ft | 112 kts | 62° |
| 2026-04-22 22:49 | 37.13993 | -79.51354 | 3479 ft | 132 kts | 61° |
| 2026-04-22 22:49 | 37.14468 | -79.50266 | 3486 ft | 150 kts | 61° |
| 2026-04-22 22:49 | 37.14997 | -79.49088 | 3454 ft | 162 kts | 59° |
| 2026-04-22 22:50 | 37.15597 | -79.47840 | 3445 ft | 169 kts | 59° |
| 2026-04-22 22:50 | 37.16212 | -79.46580 | 3467 ft | 170 kts | 59° |
| 2026-04-22 22:50 | 37.16819 | -79.45290 | 3470 ft | 174 kts | 61° |
| 2026-04-22 22:50 | 37.17428 | -79.43967 | 3470 ft | 176 kts | 60° |
| 2026-04-22 22:51 | 37.18018 | -79.42640 | 3464 ft | 177 kts | 60° |
| 2026-04-22 22:51 | 37.18655 | -79.41303 | 3465 ft | 176 kts | 61° |
| 2026-04-22 22:51 | 37.19263 | -79.39976 | 3462 ft | 177 kts | 61° |
| 2026-04-22 22:51 | 37.19881 | -79.38654 | 3458 ft | 176 kts | 60° |
| 2026-04-22 22:52 | 37.20503 | -79.37322 | 3462 ft | 177 kts | 62° |
| 2026-04-22 22:52 | 37.21074 | -79.35973 | 3457 ft | 175 kts | 63° |
| 2026-04-22 22:52 | 37.21625 | -79.34615 | 3458 ft | 176 kts | 63° |
| 2026-04-22 22:52 | 37.22188 | -79.33242 | 3459 ft | 176 kts | 63° |
| 2026-04-22 22:53 | 37.22732 | -79.31878 | 3458 ft | 174 kts | 64° |
| 2026-04-22 22:53 | 37.23263 | -79.30490 | 3457 ft | 177 kts | 65° |
| 2026-04-22 22:53 | 37.23797 | -79.29098 | 3460 ft | 178 kts | 63° |
| 2026-04-22 22:53 | 37.24362 | -79.27706 | 3459 ft | 179 kts | 65° |
| 2026-04-22 22:54 | 37.24927 | -79.26335 | 3458 ft | 176 kts | 65° |
| 2026-04-22 22:54 | 37.25506 | -79.24972 | 3459 ft | 177 kts | 63° |
| 2026-04-22 22:54 | 37.26066 | -79.23594 | 3455 ft | 177 kts | 63° |
| 2026-04-22 22:54 | 37.26625 | -79.22211 | 3461 ft | 178 kts | 66° |
| 2026-04-22 22:55 | 37.27151 | -79.20809 | 3460 ft | 177 kts | 70° |
| 2026-04-22 22:55 | 37.27530 | -79.19344 | 3461 ft | 176 kts | 77° |
| 2026-04-22 22:55 | 37.28139 | -79.16365 | 3459 ft | 176 kts | 79° |
| 2026-04-22 22:56 | 37.28429 | -79.14872 | 3461 ft | 176 kts | 78° |
| 2026-04-22 22:56 | 37.28752 | -79.13398 | 3461 ft | 175 kts | 79° |
| 2026-04-22 22:56 | 37.29043 | -79.11911 | 3458 ft | 176 kts | 79° |
| 2026-04-22 22:56 | 37.29358 | -79.10426 | 3459 ft | 176 kts | 77° |
| 2026-04-22 22:57 | 37.29679 | -79.08939 | 3459 ft | 176 kts | 78° |
| 2026-04-22 22:57 | 37.29866 | -79.07428 | 3459 ft | 176 kts | 91° |
| 2026-04-22 22:57 | 37.29969 | -79.05906 | 3456 ft | 175 kts | 89° |
| 2026-04-22 22:57 | 37.30079 | -79.04412 | 3455 ft | 173 kts | 89° |
| 2026-04-22 22:58 | 37.30199 | -79.02917 | 3450 ft | 172 kts | 89° |
| 2026-04-22 22:58 | 37.30318 | -79.01424 | 3451 ft | 172 kts | 89° |
| 2026-04-22 22:58 | 37.30436 | -78.99927 | 3454 ft | 173 kts | 88° |
| 2026-04-22 22:58 | 37.30551 | -78.98420 | 3455 ft | 174 kts | 87° |
| 2026-04-22 22:59 | 37.30676 | -78.96908 | 3451 ft | 174 kts | 88° |
| 2026-04-22 22:59 | 37.30790 | -78.95399 | 3448 ft | 172 kts | 89° |
| 2026-04-22 22:59 | 37.30919 | -78.93909 | 3445 ft | 172 kts | 88° |
| 2026-04-22 22:59 | 37.31045 | -78.92405 | 3445 ft | 174 kts | 87° |
| 2026-04-22 23:00 | 37.31180 | -78.90894 | 3446 ft | 174 kts | 88° |
| 2026-04-22 23:00 | 37.31403 | -78.89405 | 3447 ft | 173 kts | 80° |
| 2026-04-22 23:00 | 37.31681 | -78.87937 | 3441 ft | 172 kts | 79° |
| 2026-04-22 23:00 | 37.32034 | -78.86518 | 3437 ft | 174 kts | 74° |
| 2026-04-22 23:01 | 37.32420 | -78.85077 | 3437 ft | 175 kts | 74° |
| 2026-04-22 23:01 | 37.32830 | -78.83637 | 3437 ft | 175 kts | 73° |
| 2026-04-22 23:01 | 37.33246 | -78.82203 | 3440 ft | 175 kts | 73° |
| 2026-04-22 23:01 | 37.33628 | -78.80754 | 3419 ft | 174 kts | 75° |
| 2026-04-22 23:02 | 37.34033 | -78.79328 | 3413 ft | 174 kts | 73° |
| 2026-04-22 23:02 | 37.34437 | -78.77898 | 3418 ft | 174 kts | 74° |
| 2026-04-22 23:02 | 37.34851 | -78.76478 | 3420 ft | 173 kts | 73° |
| 2026-04-22 23:02 | 37.35256 | -78.75053 | 3414 ft | 172 kts | 72° |
| 2026-04-22 23:03 | 37.35667 | -78.73641 | 3412 ft | 172 kts | 74° |
| 2026-04-22 23:03 | 37.36070 | -78.72218 | 3412 ft | 172 kts | 72° |
| 2026-04-22 23:03 | 37.36477 | -78.70803 | 3412 ft | 173 kts | 74° |
| 2026-04-22 23:03 | 37.36887 | -78.69373 | 3411 ft | 174 kts | 74° |
| 2026-04-22 23:04 | 37.37275 | -78.67931 | 3408 ft | 174 kts | 73° |
| 2026-04-22 23:04 | 37.37686 | -78.66501 | 3411 ft | 174 kts | 72° |
| 2026-04-22 23:04 | 37.38102 | -78.65067 | 3407 ft | 175 kts | 73° |
| 2026-04-22 23:04 | 37.38535 | -78.63636 | 3408 ft | 175 kts | 72° |
| 2026-04-22 23:05 | 37.38956 | -78.62199 | 3407 ft | 176 kts | 74° |
| 2026-04-22 23:05 | 37.39381 | -78.60760 | 3408 ft | 175 kts | 73° |
| 2026-04-22 23:05 | 37.39792 | -78.59342 | 3404 ft | 175 kts | 73° |
| 2026-04-22 23:05 | 37.40210 | -78.57903 | 3404 ft | 175 kts | 72° |
| 2026-04-22 23:06 | 37.40633 | -78.56464 | 3407 ft | 175 kts | 72° |
| 2026-04-22 23:06 | 37.41056 | -78.55024 | 3400 ft | 176 kts | 72° |
| 2026-04-22 23:06 | 37.41483 | -78.53579 | 3405 ft | 176 kts | 73° |
| 2026-04-22 23:06 | 37.41894 | -78.52137 | 3405 ft | 175 kts | 73° |
| 2026-04-22 23:07 | 37.42321 | -78.50700 | 3403 ft | 175 kts | 72° |
| 2026-04-22 23:07 | 37.42754 | -78.49270 | 3404 ft | 175 kts | 72° |
| 2026-04-22 23:07 | 37.43170 | -78.47831 | 3399 ft | 173 kts | 73° |
| 2026-04-22 23:07 | 37.43575 | -78.46400 | 3404 ft | 175 kts | 73° |
| 2026-04-22 23:08 | 37.43987 | -78.44960 | 3406 ft | 175 kts | 72° |
| 2026-04-22 23:08 | 37.44406 | -78.43529 | 3399 ft | 175 kts | 72° |
| 2026-04-22 23:08 | 37.44822 | -78.42096 | 3400 ft | 174 kts | 72° |
| 2026-04-22 23:08 | 37.45240 | -78.40658 | 3403 ft | 176 kts | 73° |
| 2026-04-22 23:09 | 37.45661 | -78.39213 | 3404 ft | 176 kts | 72° |
| 2026-04-22 23:09 | 37.46068 | -78.37791 | 3404 ft | 175 kts | 72° |
| 2026-04-22 23:09 | 37.46479 | -78.36351 | 3400 ft | 175 kts | 72° |
| 2026-04-22 23:09 | 37.46906 | -78.34913 | 3407 ft | 175 kts | 71° |
| 2026-04-22 23:10 | 37.47331 | -78.33473 | 3405 ft | 176 kts | 72° |
| 2026-04-22 23:10 | 37.47767 | -78.32011 | 3403 ft | 176 kts | 72° |
| 2026-04-22 23:10 | 37.48183 | -78.30585 | 3401 ft | 175 kts | 73° |
| 2026-04-22 23:10 | 37.48601 | -78.29150 | 3403 ft | 175 kts | 72° |
| 2026-04-22 23:11 | 37.49019 | -78.27700 | 3401 ft | 177 kts | 72° |
| 2026-04-22 23:11 | 37.49452 | -78.26257 | 3399 ft | 176 kts | 72° |
| 2026-04-22 23:11 | 37.49871 | -78.24812 | 3401 ft | 176 kts | 72° |
| 2026-04-22 23:11 | 37.50292 | -78.23368 | 3399 ft | 175 kts | 72° |
| 2026-04-22 23:12 | 37.50724 | -78.21930 | 3401 ft | 175 kts | 71° |
| 2026-04-22 23:12 | 37.51155 | -78.20493 | 3395 ft | 174 kts | 71° |
| 2026-04-22 23:12 | 37.51524 | -78.19039 | 3398 ft | 175 kts | 79° |
| 2026-04-22 23:12 | 37.51782 | -78.17539 | 3397 ft | 175 kts | 82° |
| 2026-04-22 23:13 | 37.51975 | -78.16042 | 3400 ft | 173 kts | 83° |
| 2026-04-22 23:13 | 37.52176 | -78.14554 | 3395 ft | 173 kts | 83° |
| 2026-04-22 23:13 | 37.52326 | -78.13054 | 3395 ft | 173 kts | 86° |
| 2026-04-22 23:13 | 37.52464 | -78.11552 | 3401 ft | 172 kts | 86° |
| 2026-04-22 23:14 | 37.52591 | -78.10050 | 3397 ft | 172 kts | 86° |
| 2026-04-22 23:14 | 37.52715 | -78.08548 | 3395 ft | 173 kts | 86° |
| 2026-04-22 23:14 | 37.52842 | -78.07042 | 3395 ft | 173 kts | 86° |
| 2026-04-22 23:14 | 37.52969 | -78.05535 | 3396 ft | 173 kts | 86° |
| 2026-04-22 23:15 | 37.53101 | -78.04031 | 3397 ft | 173 kts | 86° |
| 2026-04-22 23:15 | 37.53236 | -78.02527 | 3397 ft | 173 kts | 86° |
| 2026-04-22 23:15 | 37.53375 | -78.01020 | 3398 ft | 173 kts | 86° |
| 2026-04-22 23:15 | 37.53510 | -77.99514 | 3397 ft | 172 kts | 86° |
| 2026-04-22 23:16 | 37.53647 | -77.98014 | 3402 ft | 173 kts | 85° |
| 2026-04-22 23:16 | 37.53781 | -77.96509 | 3401 ft | 173 kts | 86° |
| 2026-04-22 23:16 | 37.53913 | -77.94999 | 3402 ft | 174 kts | 86° |
| 2026-04-22 23:16 | 37.54049 | -77.93489 | 3401 ft | 172 kts | 85° |
| 2026-04-22 23:17 | 37.54183 | -77.91992 | 3401 ft | 172 kts | 86° |
| 2026-04-22 23:17 | 37.54313 | -77.90482 | 3405 ft | 174 kts | 86° |
| 2026-04-22 23:17 | 37.54454 | -77.88994 | 3408 ft | 173 kts | 85° |
| 2026-04-22 23:17 | 37.54600 | -77.87487 | 3405 ft | 172 kts | 85° |
| 2026-04-22 23:18 | 37.54739 | -77.85987 | 3405 ft | 173 kts | 85° |
| 2026-04-22 23:18 | 37.54882 | -77.84489 | 3407 ft | 171 kts | 85° |
| 2026-04-22 23:18 | 37.55019 | -77.83004 | 3404 ft | 170 kts | 86° |
| 2026-04-22 23:18 | 37.55151 | -77.81520 | 3404 ft | 171 kts | 85° |
| 2026-04-22 23:19 | 37.55297 | -77.80028 | 3407 ft | 172 kts | 85° |
| 2026-04-22 23:19 | 37.55430 | -77.78538 | 3404 ft | 170 kts | 85° |
| 2026-04-22 23:19 | 37.55696 | -77.77102 | 3407 ft | 170 kts | 61° |
| 2026-04-22 23:19 | 37.56548 | -77.76088 | 3415 ft | 170 kts | 33° |
| 2026-04-22 23:20 | 37.57510 | -77.75222 | 3409 ft | 170 kts | 36° |
| 2026-04-22 23:20 | 37.58407 | -77.74243 | 3409 ft | 171 kts | 41° |
| 2026-04-22 23:20 | 37.59278 | -77.73206 | 3407 ft | 173 kts | 42° |
| 2026-04-22 23:20 | 37.60149 | -77.72172 | 3409 ft | 172 kts | 42° |
| 2026-04-22 23:21 | 37.61023 | -77.71132 | 3409 ft | 173 kts | 41° |
| 2026-04-22 23:21 | 37.61904 | -77.70100 | 3405 ft | 173 kts | 41° |
| 2026-04-22 23:21 | 37.62787 | -77.69055 | 3407 ft | 174 kts | 42° |
| 2026-04-22 23:21 | 37.63660 | -77.68011 | 3407 ft | 173 kts | 42° |
| 2026-04-22 23:22 | 37.64539 | -77.66991 | 3404 ft | 174 kts | 41° |
| 2026-04-22 23:22 | 37.65396 | -77.65925 | 3410 ft | 173 kts | 45° |
| 2026-04-22 23:22 | 37.66235 | -77.64837 | 3406 ft | 173 kts | 44° |
| 2026-04-22 23:22 | 37.67122 | -77.63806 | 3402 ft | 174 kts | 31° |
| 2026-04-22 23:23 | 37.68239 | -77.63287 | 3406 ft | 170 kts | 12° |
| 2026-04-22 23:23 | 37.69395 | -77.62955 | 3404 ft | 171 kts | 7° |
| 2026-04-22 23:23 | 37.70555 | -77.62673 | 3401 ft | 169 kts | 7° |
| 2026-04-22 23:23 | 37.71697 | -77.62326 | 3399 ft | 169 kts | 12° |
| 2026-04-22 23:24 | 37.72831 | -77.61955 | 3401 ft | 168 kts | 11° |
| 2026-04-22 23:24 | 37.73970 | -77.61598 | 3403 ft | 169 kts | 11° |
| 2026-04-22 23:24 | 37.75104 | -77.61226 | 3401 ft | 168 kts | 11° |
| 2026-04-22 23:24 | 37.76242 | -77.60862 | 3403 ft | 169 kts | 11° |
| 2026-04-22 23:25 | 37.77381 | -77.60496 | 3403 ft | 169 kts | 10° |
| 2026-04-22 23:25 | 37.78521 | -77.60133 | 3402 ft | 169 kts | 11° |
| 2026-04-22 23:25 | 37.79662 | -77.59776 | 3403 ft | 169 kts | 10° |
| 2026-04-22 23:25 | 37.80800 | -77.59413 | 3402 ft | 169 kts | 11° |
| 2026-04-22 23:26 | 37.81943 | -77.59051 | 3402 ft | 170 kts | 11° |
| 2026-04-22 23:26 | 37.83091 | -77.58677 | 3400 ft | 170 kts | 11° |
| 2026-04-22 23:26 | 37.84242 | -77.58333 | 3401 ft | 171 kts | 10° |
| 2026-04-22 23:26 | 37.85288 | -77.57676 | 3392 ft | 170 kts | 44° |
| 2026-04-22 23:27 | 37.85742 | -77.56328 | 3399 ft | 169 kts | 85° |
| 2026-04-22 23:27 | 37.85872 | -77.54850 | 3403 ft | 170 kts | 84° |
| 2026-04-22 23:27 | 37.86028 | -77.53364 | 3400 ft | 170 kts | 84° |
| 2026-04-22 23:27 | 37.86179 | -77.51880 | 3399 ft | 170 kts | 84° |
| 2026-04-22 23:28 | 37.86317 | -77.50383 | 3395 ft | 171 kts | 85° |
| 2026-04-22 23:28 | 37.86461 | -77.48888 | 3400 ft | 171 kts | 84° |
| 2026-04-22 23:28 | 37.86584 | -77.47394 | 3398 ft | 171 kts | 85° |
| 2026-04-22 23:28 | 37.86733 | -77.45896 | 3398 ft | 171 kts | 84° |
| 2026-04-22 23:29 | 37.86875 | -77.44400 | 3401 ft | 171 kts | 85° |
| 2026-04-22 23:29 | 37.87017 | -77.42907 | 3400 ft | 171 kts | 85° |
| 2026-04-22 23:29 | 37.87158 | -77.41435 | 3400 ft | 171 kts | 85° |
| 2026-04-22 23:29 | 37.87292 | -77.39940 | 3398 ft | 171 kts | 84° |
| 2026-04-22 23:30 | 37.87432 | -77.38449 | 3403 ft | 171 kts | 84° |
| 2026-04-22 23:30 | 37.87582 | -77.36955 | 3400 ft | 171 kts | 84° |
| 2026-04-22 23:30 | 37.87719 | -77.35454 | 3400 ft | 172 kts | 85° |
| 2026-04-22 23:30 | 37.87862 | -77.33955 | 3399 ft | 172 kts | 84° |
| 2026-04-22 23:31 | 37.88012 | -77.32449 | 3400 ft | 172 kts | 83° |
| 2026-04-22 23:31 | 37.88149 | -77.30941 | 3399 ft | 172 kts | 84° |
| 2026-04-22 23:31 | 37.88291 | -77.29437 | 3399 ft | 172 kts | 84° |
| 2026-04-22 23:31 | 37.88439 | -77.27934 | 3396 ft | 171 kts | 84° |
| 2026-04-22 23:32 | 37.88589 | -77.26445 | 3396 ft | 171 kts | 83° |
| 2026-04-22 23:32 | 37.88757 | -77.24951 | 3398 ft | 172 kts | 75° |
| 2026-04-22 23:32 | 37.89425 | -77.23733 | 3395 ft | 171 kts | 40° |
| 2026-04-22 23:32 | 37.90272 | -77.22676 | 3392 ft | 171 kts | 45° |
| 2026-04-22 23:33 | 37.91086 | -77.21579 | 3385 ft | 171 kts | 45° |
| 2026-04-22 23:33 | 37.91910 | -77.20489 | 3386 ft | 172 kts | 44° |
| 2026-04-22 23:33 | 37.92733 | -77.19402 | 3385 ft | 171 kts | 43° |
| 2026-04-22 23:33 | 37.93573 | -77.18332 | 3384 ft | 171 kts | 44° |
| 2026-04-22 23:34 | 37.94397 | -77.17245 | 3384 ft | 171 kts | 44° |
| 2026-04-22 23:34 | 37.95221 | -77.16160 | 3385 ft | 171 kts | 45° |
| 2026-04-22 23:34 | 37.96037 | -77.15068 | 3383 ft | 171 kts | 44° |
| 2026-04-22 23:34 | 37.96847 | -77.13970 | 3388 ft | 171 kts | 45° |
| 2026-04-22 23:35 | 37.97650 | -77.12859 | 3386 ft | 171 kts | 45° |
| 2026-04-22 23:35 | 37.98464 | -77.11756 | 3386 ft | 171 kts | 46° |
| 2026-04-22 23:35 | 37.99275 | -77.10653 | 3381 ft | 171 kts | 45° |
| 2026-04-22 23:35 | 37.99819 | -77.09934 | 3381 ft | 171 kts | 44° |
| 2026-04-22 23:36 | 38.00633 | -77.08838 | 3384 ft | 170 kts | 45° |
| 2026-04-22 23:36 | 38.01708 | -77.07381 | 3380 ft | 171 kts | 46° |
| 2026-04-22 23:36 | 38.02519 | -77.06267 | 3384 ft | 172 kts | 44° |
| 2026-04-22 23:36 | 38.03344 | -77.05163 | 3388 ft | 173 kts | 44° |
| 2026-04-22 23:37 | 38.03897 | -77.04412 | 3381 ft | 172 kts | 45° |
| 2026-04-22 23:37 | 38.04714 | -77.03305 | 3381 ft | 172 kts | 46° |
| 2026-04-22 23:37 | 38.05482 | -77.02140 | 3380 ft | 172 kts | 49° |
| 2026-04-22 23:37 | 38.06229 | -77.00972 | 3382 ft | 172 kts | 49° |
| 2026-04-22 23:38 | 38.06994 | -76.99804 | 3383 ft | 172 kts | 49° |
| 2026-04-22 23:38 | 38.07757 | -76.98635 | 3382 ft | 172 kts | 48° |
| 2026-04-22 23:38 | 38.08534 | -76.97475 | 3379 ft | 172 kts | 49° |
| 2026-04-22 23:38 | 38.09294 | -76.96309 | 3380 ft | 171 kts | 49° |
| 2026-04-22 23:39 | 38.10056 | -76.95152 | 3377 ft | 171 kts | 48° |
| 2026-04-22 23:39 | 38.10815 | -76.93992 | 3377 ft | 171 kts | 48° |
| 2026-04-22 23:39 | 38.11581 | -76.92835 | 3375 ft | 171 kts | 48° |
| 2026-04-22 23:39 | 38.12349 | -76.91682 | 3377 ft | 171 kts | 48° |
| 2026-04-22 23:40 | 38.13093 | -76.90496 | 3377 ft | 171 kts | 50° |
| 2026-04-22 23:40 | 38.13837 | -76.89317 | 3372 ft | 172 kts | 50° |
| 2026-04-22 23:40 | 38.14601 | -76.88161 | 3375 ft | 171 kts | 43° |
| 2026-04-22 23:40 | 38.15362 | -76.87017 | 3373 ft | 171 kts | 60° |
| 2026-04-22 23:41 | 38.15820 | -76.85625 | 3371 ft | 171 kts | 68° |
| 2026-04-22 23:41 | 38.16078 | -76.84150 | 3371 ft | 172 kts | 83° |
| 2026-04-22 23:41 | 38.16281 | -76.82651 | 3371 ft | 173 kts | 77° |
| 2026-04-22 23:41 | 38.16580 | -76.81168 | 3366 ft | 173 kts | 75° |
| 2026-04-22 23:42 | 38.16952 | -76.79712 | 3367 ft | 174 kts | 69° |
| 2026-04-22 23:42 | 38.17386 | -76.78272 | 3367 ft | 174 kts | 69° |
| 2026-04-22 23:42 | 38.17813 | -76.76844 | 3366 ft | 172 kts | 69° |
| 2026-04-22 23:42 | 38.18238 | -76.75422 | 3368 ft | 172 kts | 69° |
| 2026-04-22 23:43 | 38.18662 | -76.73995 | 3363 ft | 173 kts | 69° |
| 2026-04-22 23:43 | 38.19108 | -76.72583 | 3363 ft | 172 kts | 62° |
| 2026-04-22 23:43 | 38.19862 | -76.71416 | 3364 ft | 171 kts | 44° |
| 2026-04-22 23:43 | 38.20680 | -76.70318 | 3362 ft | 171 kts | 45° |
| 2026-04-22 23:44 | 38.21490 | -76.69207 | 3362 ft | 171 kts | 43° |
| 2026-04-22 23:44 | 38.22355 | -76.68177 | 3367 ft | 170 kts | 40° |
| 2026-04-22 23:44 | 38.23213 | -76.67137 | 3365 ft | 170 kts | 45° |
| 2026-04-22 23:44 | 38.23910 | -76.65922 | 3363 ft | 171 kts | 55° |
| 2026-04-22 23:45 | 38.24526 | -76.64629 | 3366 ft | 171 kts | 58° |
| 2026-04-22 23:45 | 38.25116 | -76.63332 | 3365 ft | 172 kts | 59° |
| 2026-04-22 23:45 | 38.25713 | -76.62003 | 3364 ft | 174 kts | 59° |
| 2026-04-22 23:45 | 38.26311 | -76.60675 | 3363 ft | 173 kts | 59° |
| 2026-04-22 23:46 | 38.26917 | -76.59331 | 3254 ft | 176 kts | 59° |
| 2026-04-22 23:46 | 38.27524 | -76.57983 | 3084 ft | 177 kts | 58° |
| 2026-04-22 23:46 | 38.28143 | -76.56627 | 2900 ft | 176 kts | 59° |
| 2026-04-22 23:46 | 38.28747 | -76.55279 | 2764 ft | 175 kts | 59° |
| 2026-04-22 23:47 | 38.29361 | -76.53938 | 2617 ft | 175 kts | 59° |
| 2026-04-22 23:47 | 38.29966 | -76.52607 | 2504 ft | 172 kts | 59° |
| 2026-04-22 23:47 | 38.30550 | -76.51330 | 2519 ft | 160 kts | 59° |
| 2026-04-22 23:47 | 38.31091 | -76.50150 | 2479 ft | 148 kts | 58° |
| 2026-04-22 23:48 | 38.31594 | -76.49064 | 2491 ft | 137 kts | 62° |
| 2026-04-22 23:48 | 38.32067 | -76.48074 | 2494 ft | 126 kts | 57° |
| 2026-04-22 23:48 | 38.32498 | -76.47128 | 2523 ft | 124 kts | 59° |
| 2026-04-22 23:48 | 38.32927 | -76.46160 | 2528 ft | 127 kts | 59° |
| 2026-04-22 23:49 | 38.33367 | -76.45163 | 2518 ft | 132 kts | 59° |
| 2026-04-22 23:49 | 38.33818 | -76.44141 | 2502 ft | 131 kts | 59° |
| 2026-04-22 23:49 | 38.34256 | -76.43143 | 2494 ft | 127 kts | 59° |
| 2026-04-22 23:49 | 38.34696 | -76.42143 | 2495 ft | 135 kts | 59° |
| 2026-04-22 23:50 | 38.35185 | -76.41061 | 2509 ft | 146 kts | 59° |
| 2026-04-22 23:50 | 38.35686 | -76.39924 | 2500 ft | 147 kts | 59° |
| 2026-04-22 23:50 | 38.36190 | -76.38784 | 2503 ft | 148 kts | 59° |
| 2026-04-22 23:50 | 38.36693 | -76.37662 | 2505 ft | 147 kts | 59° |
| 2026-04-22 23:51 | 38.37206 | -76.36524 | 2504 ft | 149 kts | 59° |
| 2026-04-22 23:51 | 38.37744 | -76.35398 | 2508 ft | 149 kts | 56° |
| 2026-04-22 23:51 | 38.38303 | -76.34287 | 2504 ft | 149 kts | 56° |
| 2026-04-22 23:51 | 38.38862 | -76.33176 | 2504 ft | 149 kts | 56° |
| 2026-04-22 23:52 | 38.39448 | -76.32074 | 2505 ft | 150 kts | 54° |
| 2026-04-22 23:52 | 38.40036 | -76.30982 | 2507 ft | 149 kts | 54° |
| 2026-04-22 23:52 | 38.40620 | -76.29895 | 2502 ft | 148 kts | 54° |
| 2026-04-22 23:52 | 38.41205 | -76.28814 | 2504 ft | 148 kts | 54° |
| 2026-04-22 23:53 | 38.41797 | -76.27724 | 2501 ft | 150 kts | 53° |
| 2026-04-22 23:53 | 38.42385 | -76.26639 | 2504 ft | 149 kts | 53° |
| 2026-04-22 23:53 | 38.42975 | -76.25551 | 2505 ft | 149 kts | 53° |
| 2026-04-22 23:53 | 38.43559 | -76.24481 | 2506 ft | 149 kts | 53° |
| 2026-04-22 23:54 | 38.44151 | -76.23395 | 2513 ft | 149 kts | 53° |
| 2026-04-22 23:54 | 38.44735 | -76.22317 | 2512 ft | 147 kts | 53° |
| 2026-04-22 23:54 | 38.45323 | -76.21242 | 2515 ft | 147 kts | 53° |
| 2026-04-22 23:54 | 38.45903 | -76.20170 | 2515 ft | 147 kts | 53° |
| 2026-04-22 23:55 | 38.46485 | -76.19098 | 2518 ft | 147 kts | 53° |
| 2026-04-22 23:55 | 38.47068 | -76.18024 | 2517 ft | 147 kts | 53° |
| 2026-04-22 23:55 | 38.47653 | -76.16953 | 2519 ft | 147 kts | 53° |
| 2026-04-22 23:55 | 38.48232 | -76.15890 | 2504 ft | 144 kts | 53° |
| 2026-04-22 23:56 | 38.48792 | -76.14855 | 2501 ft | 139 kts | 53° |
| 2026-04-22 23:56 | 38.49339 | -76.13848 | 2454 ft | 139 kts | 53° |
| 2026-04-22 23:56 | 38.49895 | -76.12833 | 2319 ft | 139 kts | 53° |
| 2026-04-22 23:56 | 38.50446 | -76.11824 | 2204 ft | 138 kts | 56° |
| 2026-04-22 23:57 | 38.50802 | -76.10657 | 2023 ft | 142 kts | 66° |
| 2026-04-22 23:57 | 38.51235 | -76.09537 | 1871 ft | 141 kts | 63° |
| 2026-04-22 23:57 | 38.51685 | -76.08439 | 1705 ft | 138 kts | 63° |
| 2026-04-22 23:57 | 38.52132 | -76.07363 | 1499 ft | 136 kts | 63° |
| 2026-04-22 23:58 | 38.52573 | -76.06313 | 1341 ft | 132 kts | 63° |
| 2026-04-22 23:58 | 38.52995 | -76.05301 | 1237 ft | 126 kts | 64° |
| 2026-04-22 23:58 | 38.53399 | -76.04329 | 1107 ft | 123 kts | 65° |
| 2026-04-22 23:58 | 38.53709 | -76.03328 | 958 ft | 113 kts | 65° |
| 2026-04-22 23:59 | 38.54317 | -76.02894 | 727 ft | 109 kts | 359° |
| 2026-04-22 23:59 | 38.55027 | -76.03085 | 629 ft | 96 kts | 338° |
| 2026-04-22 23:59 | 38.55600 | -76.03368 | 593 ft | 87 kts | 342° |
| 2026-04-22 23:59 | 38.55892 | -76.03912 | 548 ft | 76 kts | 247° |
| 2026-04-23 00:00 | 38.55036 | -76.04070 | 291 ft | 70 kts | 139° |
| 2026-04-23 00:00 | 38.54676 | -76.03731 | 135 ft | 61 kts | 141° |
| 2026-04-23 00:00 | 38.54331 | -76.03410 | 29 ft | 60 kts | 142° |
| 2026-04-23 00:01 | 38.54102 | -76.03194 | 21 ft | 25 kts | 145° |
| 2026-04-23 00:01 | 38.53928 | -76.03034 | 17 ft | 30 kts | 144° |
| 2026-04-23 00:01 | 38.53785 | -76.02901 | 16 ft | 20 kts | 144° |
| 2026-04-23 00:01 | 38.53694 | -76.02827 | 18 ft | 10 kts | 168° |
| 2026-04-23 00:02 | 38.53653 | -76.02868 | 20 ft | 7 kts | 239° |
| 2026-04-23 00:02 | 38.53669 | -76.02923 | 19 ft | 9 kts | 323° |
| 2026-04-23 00:02 | 38.53712 | -76.02965 | 18 ft | 7 kts | 323° |
| 2026-04-23 00:02 | 38.53747 | -76.02998 | 18 ft | 5 kts | 323° |
| 2026-04-23 00:03 | 38.53757 | -76.03035 | 19 ft | 1 kts | 240° |
| 2026-04-23 00:03 | 38.53751 | -76.03045 | 20 ft | 0 kts | 225° |